sensor_id;sensor_type;location;lat;lon;timestamp;pressure;altitude;pressure_sealevel;temperature;humidity
53514;BME280;39768;54.148;12.174;2023-02-18T00:03:07;101027.66;;;8.66;95.99
53514;BME280;39768;54.148;12.174;2023-02-18T00:07:09;101041.78;;;8.62;97.72
53514;BME280;39768;54.148;12.174;2023-02-18T00:11:11;101033.88;;;8.57;97.21
53514;BME280;39768;54.148;12.174;2023-02-18T00:15:13;101042.69;;;8.50;97.13
53514;BME280;39768;54.148;12.174;2023-02-18T00:19:16;101033.84;;;8.51;96.70
53514;BME280;39768;54.148;12.174;2023-02-18T00:23:18;101028.56;;;8.51;96.55
53514;BME280;39768;54.148;12.174;2023-02-18T00:27:20;101035.63;;;8.40;97.96
53514;BME280;39768;54.148;12.174;2023-02-18T00:31:26;101045.31;;;8.47;96.56
53514;BME280;39768;54.148;12.174;2023-02-18T00:35:28;101047.09;;;8.49;96.14
53514;BME280;39768;54.148;12.174;2023-02-18T00:39:30;101044.44;;;8.51;96.35
53514;BME280;39768;54.148;12.174;2023-02-18T00:43:31;101053.25;;;8.47;96.51
53514;BME280;39768;54.148;12.174;2023-02-18T00:47:33;101068.25;;;8.56;97.64
53514;BME280;39768;54.148;12.174;2023-02-18T00:51:35;101064.72;;;8.55;97.40
53514;BME280;39768;54.148;12.174;2023-02-18T00:55:40;101069.13;;;8.53;97.45
53514;BME280;39768;54.148;12.174;2023-02-18T00:59:42;101055.03;;;8.57;97.61
53514;BME280;39768;54.148;12.174;2023-02-18T01:03:44;101073.56;;;8.53;97.87
53514;BME280;39768;54.148;12.174;2023-02-18T01:07:47;101062.06;;;8.63;98.07
53514;BME280;39768;54.148;12.174;2023-02-18T01:11:49;101063.84;;;8.53;100.00
53514;BME280;39768;54.148;12.174;2023-02-18T01:15:50;101057.66;;;8.46;99.75
53514;BME280;39768;54.148;12.174;2023-02-18T01:19:52;101048.00;;;8.44;100.00
53514;BME280;39768;54.148;12.174;2023-02-18T01:23:53;101062.97;;;8.43;100.00
53514;BME280;39768;54.148;12.174;2023-02-18T01:27:55;101040.94;;;8.38;99.68
53514;BME280;39768;54.148;12.174;2023-02-18T01:31:56;101044.44;;;8.53;98.93
53514;BME280;39768;54.148;12.174;2023-02-18T01:35:58;101046.22;;;8.40;99.76
53514;BME280;39768;54.148;12.174;2023-02-18T01:39:59;101053.28;;;8.39;98.56
53514;BME280;39768;54.148;12.174;2023-02-18T01:44:18;101068.25;;;8.34;99.35
53514;BME280;39768;54.148;12.174;2023-02-18T01:48:24;101073.56;;;8.39;98.05
53514;BME280;39768;54.148;12.174;2023-02-18T01:52:27;101074.41;;;8.29;98.67
53514;BME280;39768;54.148;12.174;2023-02-18T01:56:38;101087.66;;;8.48;96.89
53514;BME280;39768;54.148;12.174;2023-02-18T02:00:41;101070.03;;;8.44;98.17
53514;BME280;39768;54.148;12.174;2023-02-18T02:04:43;101077.97;;;8.38;98.07
53514;BME280;39768;54.148;12.174;2023-02-18T02:08:46;101069.13;;;8.35;96.94
53514;BME280;39768;54.148;12.174;2023-02-18T02:13:14;101075.31;;;8.44;95.88
53514;BME280;39768;54.148;12.174;2023-02-18T02:26:20;101064.72;;;8.40;96.40
53514;BME280;39768;54.148;12.174;2023-02-18T02:35:05;101091.19;;;8.38;98.61
53514;BME280;39768;54.148;12.174;2023-02-18T02:43:52;101094.66;;;8.31;100.00
53514;BME280;39768;54.148;12.174;2023-02-18T02:52:19;101066.50;;;8.38;100.00
53514;BME280;39768;54.148;12.174;2023-02-18T02:56:23;101075.28;;;8.25;100.00
53514;BME280;39768;54.148;12.174;2023-02-18T03:05:23;101080.56;;;8.26;100.00
53514;BME280;39768;54.148;12.174;2023-02-18T03:09:53;101077.94;;;8.35;100.00
53514;BME280;39768;54.148;12.174;2023-02-18T03:14:13;101091.13;;;8.19;100.00
53514;BME280;39768;54.148;12.174;2023-02-18T03:18:42;101093.78;;;8.28;100.00
53514;BME280;39768;54.148;12.174;2023-02-18T03:22:48;101089.38;;;8.24;99.76
53514;BME280;39768;54.148;12.174;2023-02-18T03:27:02;101096.44;;;8.31;99.92
53514;BME280;39768;54.148;12.174;2023-02-18T03:31:11;101100.84;;;8.29;100.00
53514;BME280;39768;54.148;12.174;2023-02-18T03:35:17;101107.94;;;8.39;98.65
53514;BME280;39768;54.148;12.174;2023-02-18T03:39:21;101118.47;;;8.27;99.36
53514;BME280;39768;54.148;12.174;2023-02-18T03:43:23;101117.66;;;8.40;97.98
53514;BME280;39768;54.148;12.174;2023-02-18T03:47:27;101127.34;;;8.36;99.22
53514;BME280;39768;54.148;12.174;2023-02-18T03:51:29;101130.84;;;8.34;99.96
53514;BME280;39768;54.148;12.174;2023-02-18T03:55:30;101129.03;;;8.21;100.00
53514;BME280;39768;54.148;12.174;2023-02-18T03:59:32;101129.09;;;8.48;100.00
53514;BME280;39768;54.148;12.174;2023-02-18T04:03:33;101137.88;;;8.26;100.00
53514;BME280;39768;54.148;12.174;2023-02-18T04:07:35;101150.28;;;8.42;100.00
53514;BME280;39768;54.148;12.174;2023-02-18T04:11:38;101152.03;;;8.37;100.00
53514;BME280;39768;54.148;12.174;2023-02-18T04:15:39;101148.53;;;8.44;100.00
53514;BME280;39768;54.148;12.174;2023-02-18T04:19:41;101158.22;;;8.40;100.00
53514;BME280;39768;54.148;12.174;2023-02-18T04:23:43;101150.19;;;8.31;100.00
53514;BME280;39768;54.148;12.174;2023-02-18T04:27:44;101135.31;;;8.45;100.00
53514;BME280;39768;54.148;12.174;2023-02-18T04:31:46;101128.22;;;8.40;100.00
53514;BME280;39768;54.148;12.174;2023-02-18T04:35:48;101133.50;;;8.40;100.00
53514;BME280;39768;54.148;12.174;2023-02-18T04:39:49;101118.44;;;8.21;100.00
53514;BME280;39768;54.148;12.174;2023-02-18T04:43:51;101127.34;;;8.38;100.00
53514;BME280;39768;54.148;12.174;2023-02-18T04:47:53;101126.47;;;8.48;100.00
53514;BME280;39768;54.148;12.174;2023-02-18T04:51:54;101135.25;;;8.35;100.00
53514;BME280;39768;54.148;12.174;2023-02-18T04:55:55;101124.69;;;8.41;100.00
53514;BME280;39768;54.148;12.174;2023-02-18T04:59:57;101108.81;;;8.52;100.00
53514;BME280;39768;54.148;12.174;2023-02-18T05:03:58;101104.44;;;8.55;100.00
53514;BME280;39768;54.148;12.174;2023-02-18T05:08:00;101101.78;;;8.57;100.00
53514;BME280;39768;54.148;12.174;2023-02-18T05:12:02;101109.69;;;8.61;100.00
53514;BME280;39768;54.148;12.174;2023-02-18T05:16:03;101093.81;;;8.64;100.00
53514;BME280;39768;54.148;12.174;2023-02-18T05:20:06;101094.72;;;8.59;100.00
53514;BME280;39768;54.148;12.174;2023-02-18T05:24:10;101081.47;;;8.51;100.00
53514;BME280;39768;54.148;12.174;2023-02-18T06:18:54;101080.63;;;8.44;100.00
53514;BME280;39768;54.148;12.174;2023-02-18T06:32:00;101065.59;;;8.89;100.00
53514;BME280;39768;54.148;12.174;2023-02-18T07:00:36;101063.81;;;8.83;100.00
53514;BME280;39768;54.148;12.174;2023-02-18T07:04:38;101057.66;;;8.75;100.00
53514;BME280;39768;54.148;12.174;2023-02-18T07:14:14;101058.53;;;8.87;100.00
53514;BME280;39768;54.148;12.174;2023-02-18T07:18:18;101061.16;;;9.00;100.00
53514;BME280;39768;54.148;12.174;2023-02-18T07:22:20;101064.69;;;8.98;100.00
53514;BME280;39768;54.148;12.174;2023-02-18T07:26:21;101065.53;;;9.18;100.00
53514;BME280;39768;54.148;12.174;2023-02-18T07:30:23;101063.81;;;8.87;100.00
53514;BME280;39768;54.148;12.174;2023-02-18T07:34:24;101055.88;;;8.87;100.00
53514;BME280;39768;54.148;12.174;2023-02-18T07:38:39;101046.09;;;9.05;100.00
53514;BME280;39768;54.148;12.174;2023-02-18T07:43:00;101047.91;;;9.02;100.00
53514;BME280;39768;54.148;12.174;2023-02-18T07:47:13;101039.09;;;9.03;100.00
53514;BME280;39768;54.148;12.174;2023-02-18T07:51:19;101029.22;;;9.37;99.10
53514;BME280;39768;54.148;12.174;2023-02-18T07:55:26;101023.97;;;9.34;98.15
53514;BME280;39768;54.148;12.174;2023-02-18T07:59:52;101024.00;;;9.20;98.19
53514;BME280;39768;54.148;12.174;2023-02-18T08:03:54;101014.31;;;9.17;99.97
53514;BME280;39768;54.148;12.174;2023-02-18T08:07:55;101019.63;;;9.16;100.00
53514;BME280;39768;54.148;12.174;2023-02-18T08:11:57;101013.50;;;8.99;100.00
53514;BME280;39768;54.148;12.174;2023-02-18T08:15:58;101005.50;;;9.11;100.00
53514;BME280;39768;54.148;12.174;2023-02-18T08:20:00;101011.63;;;9.27;100.00
53514;BME280;39768;54.148;12.174;2023-02-18T08:24:07;101018.69;;;9.20;100.00
53514;BME280;39768;54.148;12.174;2023-02-18T08:28:09;101008.09;;;9.29;100.00
53514;BME280;39768;54.148;12.174;2023-02-18T08:32:10;101011.56;;;9.40;100.00
53514;BME280;39768;54.148;12.174;2023-02-18T08:36:13;101002.66;;;9.55;100.00
53514;BME280;39768;54.148;12.174;2023-02-18T08:40:16;100995.63;;;9.49;100.00
53514;BME280;39768;54.148;12.174;2023-02-18T08:44:18;101000.88;;;9.57;100.00
53514;BME280;39768;54.148;12.174;2023-02-18T08:48:20;100990.25;;;9.63;100.00
53514;BME280;39768;54.148;12.174;2023-02-18T08:52:22;100976.16;;;9.53;100.00
53514;BME280;39768;54.148;12.174;2023-02-18T08:56:24;100984.00;;;9.69;100.00
53514;BME280;39768;54.148;12.174;2023-02-18T09:00:26;100974.38;;;9.57;100.00
53514;BME280;39768;54.148;12.174;2023-02-18T09:04:27;100972.63;;;9.50;100.00
53514;BME280;39768;54.148;12.174;2023-02-18T09:08:29;100969.13;;;9.46;100.00
53514;BME280;39768;54.148;12.174;2023-02-18T09:12:31;100964.53;;;9.79;100.00
53514;BME280;39768;54.148;12.174;2023-02-18T09:16:32;100965.47;;;9.67;100.00
53514;BME280;39768;54.148;12.174;2023-02-18T09:20:34;100949.31;;;9.99;100.00
53514;BME280;39768;54.148;12.174;2023-02-18T09:24:37;100949.44;;;9.82;100.00
53514;BME280;39768;54.148;12.174;2023-02-18T09:28:39;100943.22;;;9.88;100.00
53514;BME280;39768;54.148;12.174;2023-02-18T09:32:41;100945.28;;;9.49;100.00
53514;BME280;39768;54.148;12.174;2023-02-18T09:36:43;100942.56;;;9.57;100.00
53514;BME280;39768;54.148;12.174;2023-02-18T09:40:47;100927.72;;;9.27;100.00
53514;BME280;39768;54.148;12.174;2023-02-18T09:44:53;100919.84;;;9.16;100.00
53514;BME280;39768;54.148;12.174;2023-02-18T09:48:57;100916.22;;;9.33;100.00
53514;BME280;39768;54.148;12.174;2023-02-18T09:53:02;100911.16;;;8.86;100.00
53514;BME280;39768;54.148;12.174;2023-02-18T09:57:05;100906.75;;;8.81;100.00
53514;BME280;39768;54.148;12.174;2023-02-18T10:05:22;100902.44;;;8.52;100.00
53514;BME280;39768;54.148;12.174;2023-02-18T10:09:30;100898.91;;;8.54;100.00
53514;BME280;39768;54.148;12.174;2023-02-18T10:13:33;100909.50;;;8.60;100.00
53514;BME280;39768;54.148;12.174;2023-02-18T10:17:36;100906.84;;;8.59;100.00
53514;BME280;39768;54.148;12.174;2023-02-18T10:21:38;100912.19;;;8.27;100.00
53514;BME280;39768;54.148;12.174;2023-02-18T10:25:43;100913.88;;;8.61;100.00
53514;BME280;39768;54.148;12.174;2023-02-18T10:29:45;100901.59;;;8.36;100.00
53514;BME280;39768;54.148;12.174;2023-02-18T10:33:58;100893.69;;;8.36;100.00
53514;BME280;39768;54.148;12.174;2023-02-18T10:42:39;100878.69;;;8.20;100.00
53514;BME280;39768;54.148;12.174;2023-02-18T10:46:55;100884.81;;;8.51;100.00
53514;BME280;39768;54.148;12.174;2023-02-18T10:51:07;100884.72;;;8.78;100.00
53514;BME280;39768;54.148;12.174;2023-02-18T10:55:13;100875.00;;;8.80;100.00
53514;BME280;39768;54.148;12.174;2023-02-18T10:59:21;100856.59;;;8.59;100.00
53514;BME280;39768;54.148;12.174;2023-02-18T11:03:25;100851.28;;;8.59;100.00
53514;BME280;39768;54.148;12.174;2023-02-18T11:07:32;100840.72;;;8.56;100.00
53514;BME280;39768;54.148;12.174;2023-02-18T11:11:38;100836.06;;;9.05;100.00
53514;BME280;39768;54.148;12.174;2023-02-18T11:16:01;100836.25;;;8.68;100.00
53514;BME280;39768;54.148;12.174;2023-02-18T11:24:30;100809.03;;;8.36;100.00
53514;BME280;39768;54.148;12.174;2023-02-18T11:28:46;100814.19;;;8.68;100.00
53514;BME280;39768;54.148;12.174;2023-02-18T11:32:56;100809.94;;;8.27;100.00
53514;BME280;39768;54.148;12.174;2023-02-18T11:37:11;100801.16;;;8.16;100.00
53514;BME280;39768;54.148;12.174;2023-02-18T11:41:16;100801.09;;;8.40;100.00
53514;BME280;39768;54.148;12.174;2023-02-18T11:45:30;100796.69;;;8.39;100.00
53514;BME280;39768;54.148;12.174;2023-02-18T11:49:33;100795.81;;;8.24;100.00
53514;BME280;39768;54.148;12.174;2023-02-18T11:53:36;100789.66;;;8.31;100.00
53514;BME280;39768;54.148;12.174;2023-02-18T11:57:41;100801.13;;;8.18;100.00
53514;BME280;39768;54.148;12.174;2023-02-18T12:01:50;100798.47;;;8.24;100.00
53514;BME280;39768;54.148;12.174;2023-02-18T12:06:04;100795.81;;;8.18;100.00
53514;BME280;39768;54.148;12.174;2023-02-18T12:10:24;100796.69;;;8.26;100.00
53514;BME280;39768;54.148;12.174;2023-02-18T12:14:28;100799.47;;;7.80;100.00
53514;BME280;39768;54.148;12.174;2023-02-18T12:18:51;100785.34;;;7.92;100.00
53514;BME280;39768;54.148;12.174;2023-02-18T12:23:57;100788.91;;;7.63;100.00
53514;BME280;39768;54.148;12.174;2023-02-18T12:27:59;100793.25;;;7.95;100.00
53514;BME280;39768;54.148;12.174;2023-02-18T12:32:16;100786.25;;;7.72;100.00
53514;BME280;39768;54.148;12.174;2023-02-18T12:41:15;100803.88;;;7.64;100.00
53514;BME280;39768;54.148;12.174;2023-02-18T12:55:08;100792.44;;;7.46;100.00
53514;BME280;39768;54.148;12.174;2023-02-18T13:04:07;100793.31;;;7.20;100.00
53514;BME280;39768;54.148;12.174;2023-02-18T13:13:17;100802.13;;;7.21;100.00
53514;BME280;39768;54.148;12.174;2023-02-18T13:17:17;100812.66;;;7.15;100.00
53514;BME280;39768;54.148;12.174;2023-02-18T13:21:21;100818.84;;;7.42;100.00
53514;BME280;39768;54.148;12.174;2023-02-18T13:25:23;100818.88;;;7.39;100.00
53514;BME280;39768;54.148;12.174;2023-02-18T13:29:30;100798.59;;;7.28;100.00
53514;BME280;39768;54.148;12.174;2023-02-18T13:46:29;100761.63;;;7.28;100.00
53514;BME280;39768;54.148;12.174;2023-02-18T13:50:38;100769.56;;;7.35;100.00
53514;BME280;39768;54.148;12.174;2023-02-18T13:54:42;100788.91;;;7.04;100.00
53514;BME280;39768;54.148;12.174;2023-02-18T13:58:53;100790.66;;;7.14;100.00
53514;BME280;39768;54.148;12.174;2023-02-18T14:02:58;100800.38;;;7.21;100.00
53514;BME280;39768;54.148;12.174;2023-02-18T14:19:28;100833.72;;;6.78;100.00
53514;BME280;39768;54.148;12.174;2023-02-18T14:27:39;100822.28;;;6.88;100.00
53514;BME280;39768;54.148;12.174;2023-02-18T14:31:50;100834.56;;;6.74;100.00
53514;BME280;39768;54.148;12.174;2023-02-18T14:36:02;100833.69;;;6.73;100.00
53514;BME280;39768;54.148;12.174;2023-02-18T14:40:27;100834.59;;;6.88;100.00
53514;BME280;39768;54.148;12.174;2023-02-18T14:49:43;100817.94;;;7.18;100.00
53514;BME280;39768;54.148;12.174;2023-02-18T14:53:48;100832.91;;;7.11;100.00
53514;BME280;39768;54.148;12.174;2023-02-18T14:57:53;100844.38;;;7.37;100.00
53514;BME280;39768;54.148;12.174;2023-02-18T15:01:56;100840.88;;;7.64;100.00
53514;BME280;39768;54.148;12.174;2023-02-18T15:05:58;100848.81;;;7.55;100.00
53514;BME280;39768;54.148;12.174;2023-02-18T15:09:59;100837.31;;;7.29;100.00
53514;BME280;39768;54.148;12.174;2023-02-18T15:14:02;100835.56;;;7.25;100.00
53514;BME280;39768;54.148;12.174;2023-02-18T15:18:31;100860.25;;;7.51;100.00
53514;BME280;39768;54.148;12.174;2023-02-18T15:22:34;100865.50;;;7.42;100.00
53514;BME280;39768;54.148;12.174;2023-02-18T15:26:40;100870.72;;;7.07;100.00
53514;BME280;39768;54.148;12.174;2023-02-18T15:30:43;100886.56;;;7.04;100.00
53514;BME280;39768;54.148;12.174;2023-02-18T15:34:49;100892.75;;;7.20;100.00
53514;BME280;39768;54.148;12.174;2023-02-18T15:38:51;100897.19;;;7.42;100.00
53514;BME280;39768;54.148;12.174;2023-02-18T15:42:56;100893.69;;;7.46;100.00
53514;BME280;39768;54.148;12.174;2023-02-18T15:47:05;100897.22;;;7.51;100.00
53514;BME280;39768;54.148;12.174;2023-02-18T15:51:11;100905.97;;;7.12;100.00
53514;BME280;39768;54.148;12.174;2023-02-18T15:55:38;100916.50;;;7.11;100.00
53514;BME280;39768;54.148;12.174;2023-02-18T15:59:45;100937.50;;;6.85;100.00
53514;BME280;39768;54.148;12.174;2023-02-18T16:03:56;100957.81;;;7.01;100.00
53514;BME280;39768;54.148;12.174;2023-02-18T16:08:02;100965.63;;;6.80;100.00
53514;BME280;39768;54.148;12.174;2023-02-18T16:12:18;100977.03;;;6.76;100.00
53514;BME280;39768;54.148;12.174;2023-02-18T16:16:30;100976.03;;;6.57;100.00
53514;BME280;39768;54.148;12.174;2023-02-18T16:20:35;100982.13;;;6.45;100.00
53514;BME280;39768;54.148;12.174;2023-02-18T16:24:39;100981.09;;;6.26;100.00
53514;BME280;39768;54.148;12.174;2023-02-18T16:28:42;100989.16;;;6.45;100.00
53514;BME280;39768;54.148;12.174;2023-02-18T16:32:44;100987.47;;;6.51;100.00
53514;BME280;39768;54.148;12.174;2023-02-18T16:36:46;100989.97;;;6.34;100.00
53514;BME280;39768;54.148;12.174;2023-02-18T16:41:07;100988.22;;;6.40;100.00
53514;BME280;39768;54.148;12.174;2023-02-18T16:45:11;101003.22;;;6.47;100.00
53514;BME280;39768;54.148;12.174;2023-02-18T16:49:13;101012.09;;;6.56;100.00
53514;BME280;39768;54.148;12.174;2023-02-18T16:53:14;101022.41;;;6.23;100.00
53514;BME280;39768;54.148;12.174;2023-02-18T16:57:16;101029.56;;;6.38;100.00
53514;BME280;39768;54.148;12.174;2023-02-18T17:01:26;101050.63;;;6.36;100.00
53514;BME280;39768;54.148;12.174;2023-02-18T17:05:31;101061.19;;;6.39;100.00
53514;BME280;39768;54.148;12.174;2023-02-18T17:09:36;101063.97;;;6.57;100.00
53514;BME280;39768;54.148;12.174;2023-02-18T17:13:38;101065.72;;;6.58;100.00
53514;BME280;39768;54.148;12.174;2023-02-18T17:17:39;101065.56;;;6.38;100.00
53514;BME280;39768;54.148;12.174;2023-02-18T17:21:41;101076.94;;;6.31;100.00
53514;BME280;39768;54.148;12.174;2023-02-18T17:25:43;101078.75;;;6.40;100.00
53514;BME280;39768;54.148;12.174;2023-02-18T17:29:46;101084.03;;;6.37;100.00
53514;BME280;39768;54.148;12.174;2023-02-18T17:33:47;101100.63;;;6.27;100.00
53514;BME280;39768;54.148;12.174;2023-02-18T17:37:49;101101.50;;;6.27;100.00
53514;BME280;39768;54.148;12.174;2023-02-18T17:41:50;101106.66;;;6.15;100.00
53514;BME280;39768;54.148;12.174;2023-02-18T17:45:55;101097.81;;;6.07;100.00
53514;BME280;39768;54.148;12.174;2023-02-18T17:49:57;101116.31;;;6.15;100.00
53514;BME280;39768;54.148;12.174;2023-02-18T17:53:59;101113.75;;;6.21;100.00
53514;BME280;39768;54.148;12.174;2023-02-18T17:58:00;101118.78;;;5.99;100.00
53514;BME280;39768;54.148;12.174;2023-02-18T18:02:02;101120.75;;;6.19;100.00
53514;BME280;39768;54.148;12.174;2023-02-18T18:06:08;101110.25;;;6.20;100.00
53514;BME280;39768;54.148;12.174;2023-02-18T18:10:15;101119.84;;;6.15;100.00
53514;BME280;39768;54.148;12.174;2023-02-18T18:14:17;101128.56;;;6.07;100.00
53514;BME280;39768;54.148;12.174;2023-02-18T18:18:19;101132.13;;;6.15;100.00
53514;BME280;39768;54.148;12.174;2023-02-18T18:22:20;101143.59;;;6.18;100.00
53514;BME280;39768;54.148;12.174;2023-02-18T18:26:22;101156.72;;;6.14;100.00
53514;BME280;39768;54.148;12.174;2023-02-18T18:30:31;101141.72;;;6.10;100.00
53514;BME280;39768;54.148;12.174;2023-02-18T18:34:35;101145.41;;;6.21;100.00
53514;BME280;39768;54.148;12.174;2023-02-18T18:38:36;101149.81;;;6.22;100.00
53514;BME280;39768;54.148;12.174;2023-02-18T18:42:38;101161.41;;;6.42;100.00
53514;BME280;39768;54.148;12.174;2023-02-18T18:46:39;101154.25;;;6.29;100.00
53514;BME280;39768;54.148;12.174;2023-02-18T18:50:42;101163.00;;;6.25;100.00
53514;BME280;39768;54.148;12.174;2023-02-18T18:54:43;101170.94;;;6.29;100.00
53514;BME280;39768;54.148;12.174;2023-02-18T18:58:44;101168.41;;;6.37;100.00
53514;BME280;39768;54.148;12.174;2023-02-18T19:02:46;101177.22;;;6.38;100.00
53514;BME280;39768;54.148;12.174;2023-02-18T19:06:47;101179.66;;;6.24;100.00
53514;BME280;39768;54.148;12.174;2023-02-18T19:10:54;101178.97;;;6.37;100.00
53514;BME280;39768;54.148;12.174;2023-02-18T19:14:55;101183.31;;;6.33;100.00
53514;BME280;39768;54.148;12.174;2023-02-18T19:18:57;101189.47;;;6.34;100.00
53514;BME280;39768;54.148;12.174;2023-02-18T19:22:58;101182.47;;;6.39;100.00
53514;BME280;39768;54.148;12.174;2023-02-18T19:27:00;101176.28;;;6.32;100.00
53514;BME280;39768;54.148;12.174;2023-02-18T19:31:08;101188.59;;;6.35;100.00
53514;BME280;39768;54.148;12.174;2023-02-18T19:35:11;101198.22;;;6.31;100.00
53514;BME280;39768;54.148;12.174;2023-02-18T19:39:12;101192.06;;;6.31;100.00
53514;BME280;39768;54.148;12.174;2023-02-18T19:43:14;101191.28;;;6.38;100.00
53514;BME280;39768;54.148;12.174;2023-02-18T19:47:15;101194.91;;;6.51;100.00
53514;BME280;39768;54.148;12.174;2023-02-18T19:51:18;101184.13;;;6.28;100.00
53514;BME280;39768;54.148;12.174;2023-02-18T19:55:22;101195.53;;;6.27;100.00
53514;BME280;39768;54.148;12.174;2023-02-18T19:59:24;101193.75;;;6.23;100.00
53514;BME280;39768;54.148;12.174;2023-02-18T20:03:25;101187.66;;;6.30;100.00
53514;BME280;39768;54.148;12.174;2023-02-18T20:07:28;101200.00;;;6.34;100.00
53514;BME280;39768;54.148;12.174;2023-02-18T20:11:30;101198.22;;;6.31;100.00
53514;BME280;39768;54.148;12.174;2023-02-18T20:15:32;101197.38;;;6.34;100.00
53514;BME280;39768;54.148;12.174;2023-02-18T20:19:33;101201.81;;;6.38;100.00
53514;BME280;39768;54.148;12.174;2023-02-18T20:23:35;101206.22;;;6.38;100.00
53514;BME280;39768;54.148;12.174;2023-02-18T20:27:36;101207.22;;;6.49;100.00
53514;BME280;39768;54.148;12.174;2023-02-18T20:31:52;101214.28;;;6.51;100.00
53514;BME280;39768;54.148;12.174;2023-02-18T20:35:55;101216.91;;;6.54;100.00
53514;BME280;39768;54.148;12.174;2023-02-18T20:39:56;101224.97;;;6.65;100.00
53514;BME280;39768;54.148;12.174;2023-02-18T20:43:58;101237.97;;;6.48;100.00
53514;BME280;39768;54.148;12.174;2023-02-18T20:48:00;101229.38;;;6.67;100.00
53514;BME280;39768;54.148;12.174;2023-02-18T20:52:01;101233.53;;;6.44;100.00
53514;BME280;39768;54.148;12.174;2023-02-18T20:56:04;101239.69;;;6.46;100.00
53514;BME280;39768;54.148;12.174;2023-02-18T21:00:06;101223.06;;;6.53;100.00
53514;BME280;39768;54.148;12.174;2023-02-18T21:04:12;101205.53;;;6.58;100.00
53514;BME280;39768;54.148;12.174;2023-02-18T21:08:14;101203.66;;;6.47;100.00
53514;BME280;39768;54.148;12.174;2023-02-18T21:12:16;101218.75;;;6.60;100.00
53514;BME280;39768;54.148;12.174;2023-02-18T21:16:18;101221.31;;;6.55;100.00
53514;BME280;39768;54.148;12.174;2023-02-18T21:20:20;101218.72;;;6.58;100.00
53514;BME280;39768;54.148;12.174;2023-02-18T21:24:22;101223.09;;;6.56;100.00
53514;BME280;39768;54.148;12.174;2023-02-18T21:28:23;101234.47;;;6.51;100.00
53514;BME280;39768;54.148;12.174;2023-02-18T21:32:25;101236.13;;;6.43;100.00
53514;BME280;39768;54.148;12.174;2023-02-18T21:36:29;101242.47;;;6.58;100.00
53514;BME280;39768;54.148;12.174;2023-02-18T21:40:31;101239.69;;;6.45;100.00
53514;BME280;39768;54.148;12.174;2023-02-18T21:44:33;101238.22;;;6.72;100.00
53514;BME280;39768;54.148;12.174;2023-02-18T21:48:43;101235.44;;;6.59;100.00
53514;BME280;39768;54.148;12.174;2023-02-18T21:53:03;101231.88;;;6.52;100.00
53514;BME280;39768;54.148;12.174;2023-02-18T21:57:08;101232.00;;;6.66;100.00
53514;BME280;39768;54.148;12.174;2023-02-18T22:01:10;101243.38;;;6.60;100.00
53514;BME280;39768;54.148;12.174;2023-02-18T22:05:12;101245.19;;;6.69;100.00
53514;BME280;39768;54.148;12.174;2023-02-18T22:09:14;101237.13;;;6.51;100.00
53514;BME280;39768;54.148;12.174;2023-02-18T22:13:15;101234.66;;;6.67;100.00
53514;BME280;39768;54.148;12.174;2023-02-18T22:17:17;101231.13;;;6.65;100.00
53514;BME280;39768;54.148;12.174;2023-02-18T22:21:19;101237.31;;;6.67;100.00
53514;BME280;39768;54.148;12.174;2023-02-18T22:25:21;101234.66;;;6.69;100.00
53514;BME280;39768;54.148;12.174;2023-02-18T22:29:23;101241.66;;;6.65;100.00
53514;BME280;39768;54.148;12.174;2023-02-18T22:33:25;101240.75;;;6.62;100.00
53514;BME280;39768;54.148;12.174;2023-02-18T22:37:27;101238.94;;;6.58;100.00
53514;BME280;39768;54.148;12.174;2023-02-18T22:41:30;101256.44;;;6.48;100.00
53514;BME280;39768;54.148;12.174;2023-02-18T22:45:35;101257.44;;;6.61;100.00
53514;BME280;39768;54.148;12.174;2023-02-18T22:49:36;101255.63;;;6.57;100.00
53514;BME280;39768;54.148;12.174;2023-02-18T22:53:39;101251.25;;;6.59;100.00
53514;BME280;39768;54.148;12.174;2023-02-18T22:57:41;101242.63;;;6.75;100.00
53514;BME280;39768;54.148;12.174;2023-02-18T23:01:45;101249.59;;;6.68;100.00
53514;BME280;39768;54.148;12.174;2023-02-18T23:05:50;101259.25;;;6.68;100.00
53514;BME280;39768;54.148;12.174;2023-02-18T23:09:51;101258.41;;;6.70;100.00
53514;BME280;39768;54.148;12.174;2023-02-18T23:13:54;101258.44;;;6.73;100.00
53514;BME280;39768;54.148;12.174;2023-02-18T23:18:14;101259.41;;;6.80;100.00
53514;BME280;39768;54.148;12.174;2023-02-18T23:22:19;101257.53;;;6.70;100.00
53514;BME280;39768;54.148;12.174;2023-02-18T23:26:24;101255.88;;;6.80;100.00
53514;BME280;39768;54.148;12.174;2023-02-18T23:30:26;101253.19;;;6.75;100.00
53514;BME280;39768;54.148;12.174;2023-02-18T23:34:49;101262.22;;;6.97;100.00
53514;BME280;39768;54.148;12.174;2023-02-18T23:39:11;101260.97;;;6.63;100.00
53514;BME280;39768;54.148;12.174;2023-02-18T23:43:33;101264.41;;;6.53;100.00
53514;BME280;39768;54.148;12.174;2023-02-18T23:47:55;101245.97;;;6.57;100.00
53514;BME280;39768;54.148;12.174;2023-02-18T23:52:16;101233.63;;;6.52;100.00
53514;BME280;39768;54.148;12.174;2023-02-18T23:56:38;101231.06;;;6.62;100.00
